Scantic, Connecticut
Current Conditions -  °F | °C
As of 10:51 AM on Friday 19 Dec 2014 (Local Time) from KBDL Reporting Station
Overcast Overcast  
Wind Chill: 26°   Ceiling: 3600
Heat Index: 35°   Visibility: 10mi
Dew Point: 21°   Wind: 13mph
Humidity: 57%   Direction: 320°NW
Pressure: 30"   Gusts: NA
Location:  41.9062°N, 72.5958°W
Report Text: KBDL 191551Z 32011KT 10SM BKN036 OVC050 02/M06 A3000 RMK AO2 SLP159 T00171061
Loading
Personal Weather Stations






























Interactive Weather Map New forecast layout! Learn more

10-Day Weather Forecast

Advertisements
Track Severe Weather on mobile